Terminal Aerodrome Forecast
Issued by NWS Blacksburg, VA

Current Version | Previous Version | Text Only | Print | Product List | Glossary Off
Versions: 1 2 3 4 5 6 7 8 9 10 11 12 13 14 15 16 17 18 19 20 21 22 23 24 25 26

000
FTUS41 KRNK 272338
TAFBLF
TAF
KBLF 272338Z 2800/2824 24006KT P6SM SCT050 SCT150 SCT250
     FM280400 23004KT P6SM SCT060 BKN120 BKN250
     FM281500 27006KT P6SM VCSH BKN050 BKN100 OVC250
     FM281700 VRB06KT P6SM VCTS BKN035CB OVC100=

USA.gov is the U.S. government's official web portal to all federal, state and local government web resources and services.